createdAt,value
2018-07-27T00:01:39.775Z,25.00
2018-07-27T00:04:14.244Z,24.90
2018-07-27T00:06:48.731Z,24.80
2018-07-27T00:09:24.339Z,24.70
2018-07-27T00:11:59.426Z,24.70
2018-07-27T00:14:34.142Z,24.60
2018-07-27T00:17:08.838Z,24.50
2018-07-27T00:19:44.072Z,24.50
2018-07-27T00:22:18.744Z,24.40
2018-07-27T00:24:53.529Z,24.40
2018-07-27T00:27:28.900Z,24.30
2018-07-27T00:30:04.365Z,24.30
2018-07-27T00:32:39.068Z,24.20
2018-07-27T00:35:13.664Z,24.20
2018-07-27T00:40:22.176Z,24.10
2018-07-27T00:42:57.146Z,24.10
2018-07-27T00:45:34.910Z,24.10
2018-07-27T00:48:09.438Z,24.10
2018-07-27T00:50:44.638Z,24.10
2018-07-27T00:53:20.185Z,24.10
2018-07-27T00:55:54.840Z,24.00
2018-07-27T00:58:29.792Z,24.00
2018-07-27T01:01:04.695Z,24.00
2018-07-27T01:03:39.276Z,24.00
2018-07-27T01:06:14.258Z,24.00
2018-07-27T01:08:49.276Z,23.90
2018-07-27T01:11:23.985Z,24.00
2018-07-27T01:13:59.081Z,23.90
2018-07-27T01:16:33.584Z,23.90
2018-07-27T01:19:08.606Z,23.90
2018-07-27T01:21:43.224Z,23.80
2018-07-27T01:24:17.782Z,23.80
2018-07-27T01:26:52.829Z,23.80
2018-07-27T01:29:27.312Z,23.80
2018-07-27T01:32:01.864Z,23.80
2018-07-27T01:34:36.616Z,23.70
2018-07-27T01:37:12.005Z,23.70
2018-07-27T01:39:46.952Z,23.70
2018-07-27T01:42:21.823Z,23.60
2018-07-27T01:44:56.439Z,23.60
2018-07-27T01:47:31.080Z,23.60
2018-07-27T01:50:05.748Z,23.60
2018-07-27T01:52:40.187Z,23.50
2018-07-27T01:55:14.878Z,23.50
2018-07-27T01:57:49.543Z,23.50
2018-07-27T02:00:24.498Z,23.50
2018-07-27T02:02:59.168Z,23.50
2018-07-27T02:05:33.810Z,23.40
2018-07-27T02:08:08.600Z,23.40
2018-07-27T02:10:44.508Z,23.40
2018-07-27T02:13:19.309Z,23.30
2018-07-27T02:15:53.711Z,23.40
2018-07-27T02:18:29.486Z,23.30
2018-07-27T02:21:04.273Z,23.30
2018-07-27T02:23:39.284Z,23.30
2018-07-27T02:26:14.038Z,23.30
2018-07-27T02:28:48.844Z,23.30
2018-07-27T02:31:23.779Z,23.20
2018-07-27T02:33:58.440Z,23.30
2018-07-27T02:36:33.322Z,23.20
2018-07-27T02:39:14.166Z,23.20
2018-07-27T02:41:50.336Z,23.10
2018-07-27T02:44:26.206Z,23.20
2018-07-27T02:47:00.555Z,23.10
2018-07-27T02:52:09.222Z,23.00
2018-07-27T02:54:43.831Z,23.00
2018-07-27T02:57:18.535Z,22.90
2018-07-27T02:59:52.896Z,22.80
2018-07-27T03:02:28.184Z,22.80
2018-07-27T03:05:02.821Z,22.70
2018-07-27T03:07:37.552Z,22.70
2018-07-27T03:10:12.542Z,22.60
2018-07-27T03:12:47.150Z,22.60
2018-07-27T03:15:22.053Z,22.50
2018-07-27T03:17:56.845Z,22.50
2018-07-27T03:20:31.507Z,22.40
2018-07-27T03:23:06.189Z,22.40
2018-07-27T03:25:41.250Z,22.30
2018-07-27T03:28:16.254Z,22.30
2018-07-27T03:30:50.617Z,22.20
2018-07-27T03:33:25.119Z,22.20
2018-07-27T03:35:59.934Z,22.20
2018-07-27T03:38:34.277Z,22.10
2018-07-27T03:41:08.890Z,22.10
2018-07-27T03:43:43.362Z,22.00
2018-07-27T03:46:18.355Z,21.90
2018-07-27T03:48:53.008Z,21.90
2018-07-27T03:51:27.454Z,21.90
2018-07-27T03:54:02.147Z,21.80
2018-07-27T03:56:37.245Z,21.80
2018-07-27T03:59:12.385Z,21.70
2018-07-27T04:01:47.211Z,21.70
2018-07-27T04:04:21.709Z,21.70
2018-07-27T04:06:56.390Z,21.60
2018-07-27T04:09:30.783Z,21.60
2018-07-27T04:12:05.754Z,21.60
2018-07-27T04:14:40.168Z,21.50
2018-07-27T04:17:14.967Z,21.50
2018-07-27T04:19:50.484Z,21.50
2018-07-27T04:22:25.497Z,21.50
2018-07-27T04:25:00.114Z,21.40
2018-07-27T04:27:34.811Z,21.50
2018-07-27T04:30:09.852Z,21.50
2018-07-27T04:32:43.030Z,21.40
2018-07-27T04:35:16.652Z,21.50
2018-07-27T04:37:50.498Z,21.50
2018-07-27T04:40:24.339Z,21.50
2018-07-27T04:42:58.004Z,21.50
2018-07-27T04:45:31.156Z,21.50
2018-07-27T04:48:04.222Z,21.60
2018-07-27T04:50:37.437Z,21.70
2018-07-27T04:53:11.044Z,21.70
2018-07-27T04:55:45.248Z,21.70
2018-07-27T04:58:18.435Z,21.80
2018-07-27T05:00:51.658Z,21.80
2018-07-27T05:03:25.143Z,21.90
2018-07-27T05:05:58.974Z,21.90
2018-07-27T05:08:32.938Z,21.90
2018-07-27T05:11:06.194Z,21.90
2018-07-27T05:13:39.529Z,22.00
2018-07-27T05:16:13.373Z,22.10
2018-07-27T05:18:46.852Z,22.10
2018-07-27T05:21:19.846Z,22.20
2018-07-27T05:23:53.293Z,22.20
2018-07-27T05:26:26.781Z,22.30
2018-07-27T05:29:00.568Z,22.30
2018-07-27T05:31:33.724Z,22.40
2018-07-27T05:34:07.708Z,22.50
2018-07-27T05:36:41.075Z,22.50
2018-07-27T05:39:14.629Z,22.60
2018-07-27T05:41:48.126Z,22.70
2018-07-27T05:44:21.282Z,22.80
2018-07-27T05:46:55.052Z,22.90
2018-07-27T05:49:28.559Z,23.00
2018-07-27T05:52:01.707Z,23.00
2018-07-27T05:54:34.909Z,23.10
2018-07-27T05:57:08.388Z,23.20
2018-07-27T05:59:41.412Z,23.30
2018-07-27T06:02:14.883Z,23.30
2018-07-27T06:04:47.918Z,23.40
2018-07-27T06:07:21.047Z,23.50
2018-07-27T06:09:54.421Z,23.50
2018-07-27T06:12:28.259Z,23.60
2018-07-27T06:15:01.750Z,23.70
2018-07-27T06:17:35.187Z,23.80
2018-07-27T06:20:10.694Z,23.80
2018-07-27T06:22:44.089Z,23.80
2018-07-27T06:25:17.412Z,23.90
2018-07-27T06:27:50.774Z,24.00
2018-07-27T06:30:24.140Z,24.10
2018-07-27T06:32:57.734Z,24.10
2018-07-27T06:35:31.309Z,24.20
2018-07-27T06:38:04.852Z,24.30
2018-07-27T06:40:38.644Z,24.30
2018-07-27T06:43:12.119Z,24.40
2018-07-27T06:45:45.510Z,24.40
2018-07-27T06:48:19.014Z,24.50
2018-07-27T06:50:52.841Z,24.60
2018-07-27T06:53:25.948Z,24.70
2018-07-27T06:58:31.678Z,24.80
2018-07-27T07:01:04.706Z,24.90
2018-07-27T07:03:37.729Z,25.00
2018-07-27T07:06:10.978Z,25.00
2018-07-27T07:08:44.532Z,25.10
2018-07-27T07:11:17.835Z,25.10
2018-07-27T07:13:50.686Z,25.20
2018-07-27T07:16:28.517Z,25.30
2018-07-27T07:19:01.906Z,25.40
2018-07-27T07:21:35.550Z,25.50
2018-07-27T07:24:09.412Z,25.60
2018-07-27T07:26:42.685Z,25.60
2018-07-27T07:29:15.799Z,25.70
2018-07-27T07:31:49.202Z,25.80
2018-07-27T07:34:23.279Z,25.90
2018-07-27T07:36:56.809Z,26.00
2018-07-27T07:39:30.080Z,26.10
2018-07-27T07:42:03.470Z,26.10
2018-07-27T07:44:36.978Z,26.20
2018-07-27T07:47:10.259Z,26.30
2018-07-27T07:49:49.728Z,26.30
2018-07-27T07:52:23.040Z,26.40
2018-07-27T07:54:56.555Z,26.50
2018-07-27T07:57:30.189Z,26.60
2018-07-27T08:00:04.105Z,26.60
2018-07-27T08:02:37.753Z,26.70
2018-07-27T08:05:11.280Z,26.80
2018-07-27T08:07:44.340Z,26.90
2018-07-27T08:10:17.974Z,27.00
2018-07-27T08:12:51.667Z,27.10
2018-07-27T08:15:25.003Z,27.20
2018-07-27T08:17:58.114Z,27.20
2018-07-27T08:20:31.730Z,27.30
2018-07-27T08:23:05.073Z,27.40
2018-07-27T08:27:02.165Z,27.50
2018-07-27T08:29:39.953Z,27.60
2018-07-27T08:32:13.708Z,27.70
2018-07-27T08:34:46.926Z,27.80
2018-07-27T08:37:20.131Z,27.80
2018-07-27T08:39:53.662Z,27.90
2018-07-27T08:42:26.818Z,28.00
2018-07-27T08:44:59.853Z,28.10
2018-07-27T08:47:32.967Z,28.20
2018-07-27T08:50:06.445Z,28.30
2018-07-27T08:52:39.298Z,28.40
2018-07-27T08:55:12.371Z,28.50
2018-07-27T08:57:46.364Z,28.50
2018-07-27T09:00:20.907Z,28.60
2018-07-27T09:02:54.346Z,28.70
2018-07-27T09:05:27.916Z,28.80
2018-07-27T09:08:00.983Z,28.90
2018-07-27T09:10:35.135Z,29.00
2018-07-27T09:13:08.257Z,29.00
2018-07-27T09:15:41.253Z,29.10
2018-07-27T09:18:15.198Z,29.20
2018-07-27T09:20:48.976Z,29.30
2018-07-27T09:23:22.044Z,29.40
2018-07-27T09:25:55.954Z,29.40
2018-07-27T09:28:29.428Z,29.50
2018-07-27T09:31:03.150Z,29.60
2018-07-27T09:33:37.948Z,29.80
2018-07-27T09:36:11.283Z,29.80
2018-07-27T09:38:44.521Z,29.90
2018-07-27T09:41:18.017Z,30.00
2018-07-27T09:43:51.283Z,30.10
2018-07-27T09:46:24.298Z,30.20
2018-07-27T09:48:57.370Z,30.30
2018-07-27T09:51:30.467Z,30.30
2018-07-27T09:54:03.633Z,30.30
2018-07-27T09:56:36.753Z,30.40
2018-07-27T09:59:09.924Z,30.50
2018-07-27T10:01:43.260Z,30.50
2018-07-27T10:04:30.337Z,30.50
2018-07-27T10:07:03.262Z,30.60
2018-07-27T10:09:37.527Z,30.70
2018-07-27T10:12:10.666Z,30.70
2018-07-27T10:14:43.639Z,30.90
2018-07-27T10:17:17.782Z,31.00
2018-07-27T10:19:50.863Z,31.10
2018-07-27T10:22:23.710Z,31.10
2018-07-27T10:24:57.617Z,31.20
2018-07-27T10:27:30.579Z,31.20
2018-07-27T10:30:03.766Z,31.30
2018-07-27T10:32:36.987Z,31.50
2018-07-27T10:35:10.246Z,31.60
2018-07-27T10:37:43.703Z,31.70
2018-07-27T10:40:17.505Z,31.70
2018-07-27T10:42:50.929Z,31.80
2018-07-27T10:45:24.262Z,32.00
2018-07-27T10:47:57.179Z,32.00
2018-07-27T10:50:30.014Z,32.00
2018-07-27T10:53:03.271Z,32.10
2018-07-27T10:55:36.221Z,32.20
2018-07-27T10:58:09.289Z,32.30
2018-07-27T11:00:42.313Z,32.40
2018-07-27T11:03:15.786Z,32.50
2018-07-27T11:05:48.801Z,32.60
2018-07-27T11:08:21.682Z,32.60
2018-07-27T11:10:54.662Z,32.70
2018-07-27T11:13:28.062Z,32.80
2018-07-27T11:16:01.886Z,32.80
2018-07-27T11:18:35.740Z,32.90
2018-07-27T11:21:09.564Z,33.00
2018-07-27T11:23:43.139Z,33.10
2018-07-27T11:26:16.495Z,33.20
2018-07-27T11:28:49.698Z,33.30
2018-07-27T11:31:22.895Z,33.30
2018-07-27T11:33:56.106Z,33.40
2018-07-27T11:36:29.514Z,33.50
2018-07-27T11:39:02.566Z,33.60
2018-07-27T11:41:35.783Z,33.70
2018-07-27T11:44:09.156Z,33.80
2018-07-27T11:46:42.144Z,33.90
2018-07-27T11:49:15.398Z,34.00
2018-07-27T11:51:48.550Z,34.10
2018-07-27T11:54:21.666Z,34.20
2018-07-27T11:56:54.753Z,34.30
2018-07-27T11:59:27.894Z,34.40
2018-07-27T12:02:01.173Z,34.50
2018-07-27T12:04:34.177Z,34.60
2018-07-27T12:07:07.519Z,34.60
2018-07-27T12:09:40.573Z,34.80
2018-07-27T12:12:14.116Z,34.90
2018-07-27T12:14:47.682Z,35.00
2018-07-27T12:17:21.217Z,35.20
2018-07-27T12:19:54.131Z,35.30
2018-07-27T12:22:27.512Z,35.40
2018-07-27T12:25:00.611Z,35.50
2018-07-27T12:27:33.682Z,35.50
2018-07-27T12:30:07.530Z,35.50
2018-07-27T12:32:40.474Z,35.60
2018-07-27T12:35:13.553Z,35.70
2018-07-27T12:37:46.630Z,35.80
2018-07-27T12:40:19.702Z,35.90
2018-07-27T12:42:53.070Z,35.90
2018-07-27T12:45:26.138Z,35.80
2018-07-27T12:47:59.604Z,35.70
2018-07-27T12:50:32.950Z,35.80
2018-07-27T12:53:06.114Z,36.00
2018-07-27T12:55:39.333Z,36.20
2018-07-27T12:58:13.534Z,36.40
2018-07-27T13:00:46.483Z,36.50
2018-07-27T13:03:20.119Z,36.70
2018-07-27T13:05:53.106Z,36.80
2018-07-27T13:08:26.585Z,36.90
2018-07-27T13:11:00.179Z,36.80
2018-07-27T13:13:33.497Z,36.60
2018-07-27T13:16:06.955Z,36.50
2018-07-27T13:18:40.516Z,36.60
2018-07-27T13:21:13.664Z,36.70
2018-07-27T13:26:32.112Z,37.00
2018-07-27T13:29:04.950Z,37.10
2018-07-27T13:31:57.239Z,37.20
2018-07-27T13:34:42.864Z,37.20
2018-07-27T13:37:16.381Z,37.00
2018-07-27T13:39:50.349Z,36.60
2018-07-27T13:42:24.840Z,36.40
2018-07-27T13:44:57.943Z,36.40
2018-07-27T13:47:31.158Z,36.50
2018-07-27T13:50:04.227Z,36.80
2018-07-27T13:52:37.622Z,37.10
2018-07-27T13:55:11.183Z,37.40
2018-07-27T13:57:43.915Z,37.70
2018-07-27T14:00:17.106Z,37.90
2018-07-27T14:02:50.016Z,37.90
2018-07-27T14:05:23.254Z,37.50
2018-07-27T14:07:56.479Z,37.40
2018-07-27T14:10:29.514Z,37.50
2018-07-27T14:13:02.561Z,37.70
2018-07-27T14:15:36.779Z,37.90
2018-07-27T14:18:09.686Z,38.10
2018-07-27T14:20:43.198Z,38.30
2018-07-27T14:23:16.770Z,38.40
2018-07-27T14:25:49.643Z,38.50
2018-07-27T14:28:23.251Z,38.60
2018-07-27T14:30:56.274Z,38.70
2018-07-27T14:33:29.536Z,39.30
2018-07-27T14:36:02.728Z,40.70
2018-07-27T14:38:36.232Z,42.20
2018-07-27T14:41:09.497Z,43.50
2018-07-27T14:43:42.741Z,44.50
2018-07-27T14:46:16.559Z,45.30
2018-07-27T14:48:50.003Z,45.70
2018-07-27T14:51:23.350Z,46.10
2018-07-27T14:53:56.528Z,46.20
2018-07-27T14:56:29.302Z,46.20
2018-07-27T14:59:02.256Z,46.10
2018-07-27T15:01:35.402Z,45.50
2018-07-27T15:04:09.708Z,44.10
2018-07-27T15:06:43.489Z,42.50
2018-07-27T15:09:16.780Z,41.20
2018-07-27T15:11:50.206Z,40.60
2018-07-27T15:14:24.010Z,40.80
2018-07-27T15:16:57.750Z,41.10
2018-07-27T15:19:30.865Z,41.40
2018-07-27T15:22:04.019Z,41.50
2018-07-27T15:24:37.268Z,41.60
2018-07-27T15:27:10.582Z,41.40
2018-07-27T15:29:43.995Z,41.20
2018-07-27T15:32:17.154Z,40.70
2018-07-27T15:34:50.581Z,40.40
2018-07-27T15:37:24.186Z,40.20
2018-07-27T15:39:57.821Z,40.00
2018-07-27T15:42:30.985Z,40.00
2018-07-27T15:45:05.835Z,40.10
2018-07-27T15:47:39.650Z,40.30
2018-07-27T15:50:13.090Z,40.40
2018-07-27T15:52:46.281Z,40.50
2018-07-27T15:55:19.560Z,40.60
2018-07-27T15:57:53.020Z,40.40
2018-07-27T16:00:26.374Z,40.00
2018-07-27T16:02:59.566Z,39.60
2018-07-27T16:05:32.831Z,39.40
2018-07-27T16:08:05.974Z,39.40
2018-07-27T16:10:39.243Z,39.50
2018-07-27T16:13:12.721Z,39.50
2018-07-27T16:15:46.208Z,39.50
2018-07-27T16:18:19.501Z,39.40
2018-07-27T16:20:52.843Z,39.00
2018-07-27T16:23:26.268Z,38.60
2018-07-27T16:25:59.585Z,38.20
2018-07-27T16:28:32.837Z,37.80
2018-07-27T16:31:06.201Z,37.40
2018-07-27T16:33:39.394Z,37.10
2018-07-27T16:36:13.123Z,37.00
2018-07-27T16:38:46.478Z,37.10
2018-07-27T16:41:19.870Z,37.20
2018-07-27T16:43:53.030Z,37.40
2018-07-27T16:46:26.495Z,37.50
2018-07-27T16:48:59.953Z,37.50
2018-07-27T16:51:34.654Z,37.20
2018-07-27T16:54:08.049Z,37.00
2018-07-27T16:56:41.177Z,36.90
2018-07-27T16:59:14.387Z,36.90
2018-07-27T17:01:47.497Z,37.10
2018-07-27T17:04:21.060Z,37.20
2018-07-27T17:06:54.860Z,37.40
2018-07-27T17:09:28.260Z,37.80
2018-07-27T17:12:01.460Z,38.30
2018-07-27T17:14:34.971Z,38.90
2018-07-27T17:17:08.391Z,39.20
2018-07-27T17:19:41.577Z,39.20
2018-07-27T17:22:14.924Z,38.80
2018-07-27T17:24:48.179Z,38.30
2018-07-27T17:27:21.516Z,37.80
2018-07-27T17:29:54.732Z,37.30
2018-07-27T17:32:27.780Z,36.90
2018-07-27T17:35:00.911Z,36.60
2018-07-27T17:37:34.544Z,36.20
2018-07-27T17:40:09.318Z,35.80
2018-07-27T17:42:42.517Z,35.50
2018-07-27T17:45:15.833Z,35.20
2018-07-27T17:47:49.154Z,35.00
2018-07-27T17:50:22.397Z,34.80
2018-07-27T17:52:55.845Z,34.50
2018-07-27T17:55:29.250Z,34.30
2018-07-27T17:58:03.055Z,34.20
2018-07-27T18:00:36.358Z,34.00
2018-07-27T18:03:09.735Z,33.80
2018-07-27T18:05:42.956Z,33.60
2018-07-27T18:08:16.124Z,33.40
2018-07-27T18:10:49.362Z,33.20
2018-07-27T18:13:23.473Z,33.10
2018-07-27T18:15:56.837Z,33.00
2018-07-27T18:18:30.129Z,32.80
2018-07-27T18:21:03.114Z,32.70
2018-07-27T18:23:36.713Z,32.60
2018-07-27T18:26:12.014Z,32.50
2018-07-27T18:28:45.571Z,32.40
2018-07-27T18:31:20.736Z,32.30
2018-07-27T18:33:53.801Z,32.10
2018-07-27T18:36:27.314Z,32.10
2018-07-27T18:39:00.214Z,32.00
2018-07-27T18:41:33.728Z,31.90
2018-07-27T18:44:06.803Z,31.80
2018-07-27T18:46:41.013Z,31.70
2018-07-27T18:49:14.190Z,31.50
2018-07-27T18:51:47.753Z,31.40
2018-07-27T18:54:21.342Z,31.30
2018-07-27T18:56:54.436Z,31.20
2018-07-27T18:59:27.539Z,31.10
2018-07-27T19:02:00.394Z,31.00
2018-07-27T19:04:33.339Z,30.90
2018-07-27T19:07:07.171Z,30.80
2018-07-27T19:09:39.967Z,30.70
2018-07-27T19:12:13.424Z,30.70
2018-07-27T19:14:46.758Z,30.60
2018-07-27T19:17:20.777Z,30.50
2018-07-27T19:19:53.540Z,30.40
2018-07-27T19:22:26.447Z,30.30
2018-07-27T19:24:59.548Z,30.30
2018-07-27T19:27:32.671Z,30.20
2018-07-27T19:30:08.930Z,30.20
2018-07-27T19:32:41.738Z,30.00
2018-07-27T19:35:14.889Z,30.00
2018-07-27T19:37:48.704Z,29.90
2018-07-27T19:40:21.361Z,29.90
2018-07-27T19:42:54.466Z,29.80
2018-07-27T19:45:27.499Z,29.80
2018-07-27T19:48:00.555Z,29.70
2018-07-27T19:50:34.130Z,29.60
2018-07-27T19:53:07.675Z,29.60
2018-07-27T19:55:41.056Z,29.50
2018-07-27T19:58:14.756Z,29.40
2018-07-27T20:00:47.455Z,29.30
2018-07-27T20:03:20.393Z,29.20
2018-07-27T20:05:53.923Z,29.20
2018-07-27T20:08:26.832Z,29.10
2018-07-27T20:10:59.819Z,29.10
2018-07-27T20:13:33.496Z,28.90
2018-07-27T20:16:07.158Z,28.80
2018-07-27T20:18:39.841Z,28.70
2018-07-27T20:21:12.950Z,28.70
2018-07-27T20:23:46.769Z,28.60
2018-07-27T20:26:20.342Z,28.50
2018-07-27T20:28:53.423Z,28.50
2018-07-27T20:31:26.520Z,28.50
2018-07-27T20:33:59.655Z,28.40
2018-07-27T20:36:32.598Z,28.40
2018-07-27T20:39:08.461Z,28.40
2018-07-27T20:41:42.257Z,28.40
2018-07-27T20:44:15.357Z,28.30
2018-07-27T20:46:48.342Z,28.20
2018-07-27T20:49:21.694Z,28.10
2018-07-27T20:51:55.069Z,28.00
2018-07-27T20:54:28.025Z,28.00
2018-07-27T20:57:01.101Z,28.00
2018-07-27T20:59:34.473Z,27.90
2018-07-27T21:02:09.037Z,27.90
2018-07-27T21:04:43.756Z,27.80
2018-07-27T21:07:17.948Z,27.70
2018-07-27T21:09:52.789Z,27.70
2018-07-27T21:12:27.604Z,27.60
2018-07-27T21:15:01.626Z,27.60
2018-07-27T21:17:37.042Z,27.60
2018-07-27T21:20:11.563Z,27.50
2018-07-27T21:22:46.507Z,27.50
2018-07-27T21:25:21.007Z,27.60
2018-07-27T21:27:55.781Z,27.60
2018-07-27T21:30:30.987Z,27.60
2018-07-27T21:33:48.365Z,27.60
2018-07-27T21:36:26.862Z,27.50
2018-07-27T21:39:01.609Z,27.40
2018-07-27T21:41:36.747Z,27.30
2018-07-27T21:44:11.822Z,27.20
2018-07-27T21:46:46.425Z,27.20
2018-07-27T21:49:21.054Z,27.10
2018-07-27T21:51:56.245Z,27.00
2018-07-27T21:54:31.119Z,27.00
2018-07-27T21:57:06.253Z,27.00
2018-07-27T21:59:41.353Z,26.90
2018-07-27T22:02:16.068Z,26.90
2018-07-27T22:04:51.360Z,26.80
2018-07-27T22:07:25.951Z,26.70
2018-07-27T22:10:00.624Z,26.70
2018-07-27T22:12:35.361Z,26.70
2018-07-27T22:15:15.506Z,26.60
2018-07-27T22:17:50.488Z,26.60
2018-07-27T22:20:26.174Z,26.50
2018-07-27T22:23:00.749Z,26.50
2018-07-27T22:25:35.692Z,26.40
2018-07-27T22:28:11.077Z,26.40
2018-07-27T22:30:46.370Z,26.40
2018-07-27T22:33:20.956Z,26.30
2018-07-27T22:35:56.153Z,26.20
2018-07-27T22:38:31.016Z,26.20
2018-07-27T22:41:06.188Z,26.20
2018-07-27T22:43:41.148Z,26.10
2018-07-27T22:46:15.680Z,26.10
2018-07-27T22:48:50.752Z,26.00
2018-07-27T22:51:25.225Z,26.00
2018-07-27T22:54:00.031Z,26.00
2018-07-27T22:56:35.400Z,25.90
2018-07-27T22:59:10.754Z,25.80
2018-07-27T23:01:45.223Z,25.80
2018-07-27T23:04:19.876Z,25.80
2018-07-27T23:06:55.081Z,25.80
2018-07-27T23:09:30.278Z,25.80
2018-07-27T23:12:05.248Z,25.80
2018-07-27T23:14:39.834Z,25.70
2018-07-27T23:17:15.057Z,25.70
2018-07-27T23:19:49.408Z,25.70
2018-07-27T23:22:24.342Z,25.70
2018-07-27T23:24:58.904Z,25.60
2018-07-27T23:27:33.391Z,25.60
2018-07-27T23:30:11.607Z,25.50
2018-07-27T23:32:46.170Z,25.50
2018-07-27T23:35:20.774Z,25.50
2018-07-27T23:37:55.519Z,25.40
2018-07-27T23:40:30.014Z,25.40
2018-07-27T23:43:04.504Z,25.40
2018-07-27T23:45:39.843Z,25.30
2018-07-27T23:48:14.332Z,25.20
2018-07-27T23:50:49.287Z,25.20
2018-07-27T23:53:23.684Z,25.10
2018-07-27T23:55:58.121Z,25.10
2018-07-27T23:58:32.530Z,25.10
